sensor_id;sensor_type;location;lat;lon;timestamp;P1;P4;P2;P0;N10;N4;N25;N1;N05;TS
77661;SPS30;69666;52.136;5.424;2023-11-19T00:00:55;6.39;6.39;6.39;6.04;48.24;48.23;48.22;48.05;41.87;0.48
77661;SPS30;69666;52.136;5.424;2023-11-19T00:03:24;6.04;6.03;6.00;5.63;44.99;44.98;44.96;44.77;38.95;0.49
77661;SPS30;69666;52.136;5.424;2023-11-19T00:05:54;5.51;5.51;5.51;5.20;41.54;41.53;41.52;41.37;36.04;0.48
77661;SPS30;69666;52.136;5.424;2023-11-19T00:08:23;5.52;5.52;5.52;5.22;41.70;41.70;41.69;41.54;36.20;0.46
77661;SPS30;69666;52.136;5.424;2023-11-19T00:10:52;5.92;5.92;5.92;5.59;44.67;44.66;44.65;44.49;38.77;0.47
77661;SPS30;69666;52.136;5.424;2023-11-19T00:13:22;5.75;5.70;5.60;5.18;41.39;41.38;41.34;41.07;35.59;0.49
77661;SPS30;69666;52.136;5.424;2023-11-19T00:15:53;5.69;5.62;5.48;5.02;40.09;40.08;40.03;39.71;34.31;0.50
77661;SPS30;69666;52.136;5.424;2023-11-19T00:18:24;5.65;5.57;5.42;4.94;39.49;39.47;39.42;39.09;33.75;0.50
77661;SPS30;69666;52.136;5.424;2023-11-19T00:20:53;6.01;5.91;5.72;5.19;41.47;41.45;41.39;41.01;35.34;0.50
77661;SPS30;69666;52.136;5.424;2023-11-19T00:23:23;5.11;5.11;5.09;4.80;38.31;38.30;38.29;38.13;33.20;0.48
77661;SPS30;69666;52.136;5.424;2023-11-19T00:25:52;5.82;5.72;5.53;5.01;40.06;40.04;39.98;39.61;34.12;0.50
77661;SPS30;69666;52.136;5.424;2023-11-19T00:28:22;5.73;5.62;5.38;4.82;38.50;38.48;38.41;37.98;32.61;0.50
77661;SPS30;69666;52.136;5.424;2023-11-19T00:30:51;5.58;5.44;5.17;4.58;36.62;36.60;36.52;36.06;30.86;0.50
77661;SPS30;69666;52.136;5.424;2023-11-19T00:33:21;5.40;5.30;5.08;4.56;36.40;36.38;36.32;35.92;30.86;0.52
77661;SPS30;69666;52.136;5.424;2023-11-19T00:35:50;5.70;5.53;5.17;4.49;35.89;35.86;35.76;35.19;29.94;0.55
77661;SPS30;69666;52.136;5.424;2023-11-19T00:38:20;6.23;5.98;5.49;4.62;36.94;36.91;36.77;36.02;30.36;0.56
77661;SPS30;69666;52.136;5.424;2023-11-19T00:40:49;5.73;5.50;5.04;4.24;33.92;33.89;33.76;33.07;27.87;0.56
77661;SPS30;69666;52.136;5.424;2023-11-19T00:43:19;6.00;5.74;5.22;4.33;34.66;34.62;34.47;33.70;28.28;0.58
77661;SPS30;69666;52.136;5.424;2023-11-19T00:45:49;5.71;5.48;5.01;4.19;33.56;33.52;33.39;32.69;27.51;0.58
77661;SPS30;69666;52.136;5.424;2023-11-19T00:48:19;6.30;5.97;5.31;4.26;34.09;34.05;33.86;32.92;27.31;0.62
77661;SPS30;69666;52.136;5.424;2023-11-19T00:50:48;6.78;6.39;5.59;4.37;35.03;34.98;34.76;33.65;27.68;0.62
77661;SPS30;69666;52.136;5.424;2023-11-19T00:53:18;6.41;6.04;5.27;4.11;32.94;32.89;32.68;31.62;25.98;0.61
77661;SPS30;69666;52.136;5.424;2023-11-19T00:55:48;7.31;6.86;5.94;4.56;36.57;36.51;36.26;34.99;28.58;0.64
77661;SPS30;69666;52.136;5.424;2023-11-19T00:58:17;6.55;6.13;5.27;4.01;32.14;32.08;31.85;30.68;24.97;0.62
77661;SPS30;69666;52.136;5.424;2023-11-19T01:00:47;6.77;6.32;5.40;4.06;32.55;32.49;32.24;30.98;25.10;0.63
77661;SPS30;69666;52.136;5.424;2023-11-19T01:03:16;7.10;6.63;5.65;4.24;33.97;33.91;33.64;32.32;26.16;0.64
77661;SPS30;69666;52.136;5.424;2023-11-19T01:05:46;7.90;7.26;5.97;4.16;33.43;33.35;33.00;31.28;24.58;0.71
77661;SPS30;69666;52.136;5.424;2023-11-19T01:08:15;8.33;7.62;6.16;4.16;33.42;33.33;32.94;31.02;24.02;0.74
77661;SPS30;69666;52.136;5.424;2023-11-19T01:10:45;8.11;7.42;6.00;4.07;32.66;32.57;32.19;30.33;23.52;0.74
77661;SPS30;69666;52.136;5.424;2023-11-19T01:13:15;8.30;7.56;6.05;4.00;32.17;32.07;31.67;29.69;22.76;0.76
77661;SPS30;69666;52.136;5.424;2023-11-19T01:15:44;8.79;8.02;6.45;4.31;34.62;34.52;34.09;32.03;24.67;0.75
77661;SPS30;69666;52.136;5.424;2023-11-19T01:18:15;8.51;7.76;6.23;4.13;33.22;33.12;32.71;30.69;23.57;0.74
77661;SPS30;69666;52.136;5.424;2023-11-19T01:20:44;10.10;9.11;7.11;4.43;35.61;35.49;34.94;32.33;24.02;0.78
77661;SPS30;69666;52.136;5.424;2023-11-19T01:23:14;10.08;9.08;7.04;4.33;34.86;34.73;34.18;31.54;23.27;0.80
77661;SPS30;69666;52.136;5.424;2023-11-19T01:25:43;8.90;8.06;6.33;4.01;32.24;32.13;31.67;29.41;22.06;0.77
77661;SPS30;69666;52.136;5.424;2023-11-19T01:28:13;8.35;7.63;6.15;4.12;33.13;33.04;32.64;30.69;23.69;0.75
77661;SPS30;69666;52.136;5.424;2023-11-19T01:30:43;9.27;8.46;6.82;4.58;36.79;36.69;36.25;34.09;26.32;0.75
77661;SPS30;69666;52.136;5.424;2023-11-19T01:33:12;9.77;8.84;6.95;4.41;35.47;35.35;34.84;32.37;24.30;0.78
77661;SPS30;69666;52.136;5.424;2023-11-19T01:35:41;10.03;9.09;7.16;4.56;36.67;36.54;36.02;33.50;25.20;0.79
77661;SPS30;69666;52.136;5.424;2023-11-19T01:38:11;10.03;9.06;7.08;4.44;35.74;35.62;35.09;32.51;24.25;0.79
77661;SPS30;69666;52.136;5.424;2023-11-19T01:40:40;11.10;9.95;7.61;4.52;36.44;36.30;35.67;32.64;23.61;0.81
77661;SPS30;69666;52.136;5.424;2023-11-19T01:43:10;10.75;9.66;7.43;4.49;36.14;36.00;35.40;32.52;23.74;0.80
77661;SPS30;69666;52.136;5.424;2023-11-19T01:45:41;11.86;10.59;8.00;4.60;37.11;36.95;36.25;32.91;23.33;0.85
77661;SPS30;69666;52.136;5.424;2023-11-19T01:48:11;11.78;10.49;7.86;4.43;35.76;35.60;34.89;31.50;22.02;0.86
77661;SPS30;69666;52.136;5.424;2023-11-19T01:50:42;12.30;10.97;8.25;4.70;37.88;37.72;36.99;33.48;23.56;0.84
77661;SPS30;69666;52.136;5.424;2023-11-19T01:53:12;12.12;10.79;8.07;4.53;36.55;36.39;35.66;32.16;22.42;0.85
77661;SPS30;69666;52.136;5.424;2023-11-19T01:55:41;12.08;10.77;8.08;4.58;36.92;36.75;36.03;32.57;22.84;0.87
77661;SPS30;69666;52.136;5.424;2023-11-19T01:58:10;12.59;11.21;8.39;4.72;38.04;37.87;37.11;33.48;23.35;0.87
77661;SPS30;69666;52.136;5.424;2023-11-19T02:00:40;12.42;11.07;8.30;4.70;37.91;37.74;37.00;33.44;23.44;0.86
77661;SPS30;69666;52.136;5.424;2023-11-19T02:03:11;13.66;12.12;8.97;4.89;39.49;39.30;38.46;34.42;23.50;0.89
77661;SPS30;69666;52.136;5.424;2023-11-19T02:05:41;13.03;11.56;8.55;4.65;37.56;37.37;36.57;32.71;22.30;0.89
77661;SPS30;69666;52.136;5.424;2023-11-19T02:08:11;12.12;10.81;8.13;4.63;37.38;37.21;36.49;33.04;23.27;0.85
77661;SPS30;69666;52.136;5.424;2023-11-19T02:10:42;13.48;11.98;8.92;4.94;39.89;39.70;38.88;34.95;24.14;0.88
77661;SPS30;69666;52.136;5.424;2023-11-19T02:13:11;13.20;11.69;8.59;4.59;37.08;36.89;36.06;32.09;21.58;0.90
77661;SPS30;69666;52.136;5.424;2023-11-19T02:15:41;13.35;11.83;8.71;4.68;37.82;37.63;36.79;32.80;22.15;0.89
77661;SPS30;69666;52.136;5.424;2023-11-19T02:18:45;13.86;12.25;8.96;4.72;38.12;37.92;37.04;32.83;21.81;0.90
77661;SPS30;69666;52.136;5.424;2023-11-19T02:21:07;14.75;13.01;9.45;4.87;39.37;39.15;38.20;33.64;21.96;0.91
77661;SPS30;69666;52.136;5.424;2023-11-19T02:23:38;14.38;12.69;9.24;4.79;38.73;38.52;37.60;33.18;21.79;0.93
77661;SPS30;69666;52.136;5.424;2023-11-19T02:28:46;14.72;12.98;9.42;4.84;39.18;38.96;38.01;33.46;21.81;0.95
77661;SPS30;69666;52.136;5.424;2023-11-19T02:31:16;16.28;14.27;10.14;4.88;39.56;39.31;38.20;32.95;20.20;1.01
77661;SPS30;69666;52.136;5.424;2023-11-19T02:33:46;15.51;13.60;9.70;4.72;38.23;37.99;36.95;31.98;19.81;1.00
77661;SPS30;69666;52.136;5.424;2023-11-19T02:36:17;16.30;14.32;10.29;5.12;41.44;41.19;40.11;34.97;22.14;0.99
77661;SPS30;69666;52.136;5.424;2023-11-19T02:38:47;16.58;14.57;10.47;5.22;42.22;41.97;40.87;35.64;22.59;0.97
77661;SPS30;69666;52.136;5.424;2023-11-19T02:41:17;16.66;14.64;10.50;5.21;42.15;41.90;40.79;35.52;22.41;0.97
77661;SPS30;69666;52.136;5.424;2023-11-19T02:43:46;17.34;15.21;10.83;5.25;42.55;42.29;41.12;35.55;21.95;1.00
77661;SPS30;69666;52.136;5.424;2023-11-19T02:46:16;17.63;15.43;10.93;5.20;42.17;41.90;40.69;34.97;21.18;1.01
77661;SPS30;69666;52.136;5.424;2023-11-19T02:48:46;17.44;15.33;11.03;5.52;44.64;44.38;43.22;37.73;23.99;0.95
77661;SPS30;69666;52.136;5.424;2023-11-19T02:51:16;16.39;14.47;10.54;5.48;44.34;44.10;43.04;38.02;25.03;0.91
77661;SPS30;69666;52.136;5.424;2023-11-19T02:53:46;15.76;13.95;10.24;5.45;44.06;43.84;42.84;38.09;25.54;0.90
77661;SPS30;69666;52.136;5.424;2023-11-19T02:56:16;16.17;14.31;10.50;5.59;45.13;44.89;43.87;39.00;26.12;0.91
77661;SPS30;69666;52.136;5.424;2023-11-19T02:58:54;14.93;13.21;9.69;5.15;41.60;41.38;40.44;35.93;24.04;0.93
77661;SPS30;69666;52.136;5.424;2023-11-19T03:01:26;17.59;15.51;11.25;5.78;46.74;46.48;45.34;39.90;25.98;0.95
77661;SPS30;69666;52.136;5.424;2023-11-19T03:04:01;16.81;14.77;10.60;5.27;42.67;42.41;41.30;35.98;22.75;0.96
77661;SPS30;69666;52.136;5.424;2023-11-19T03:06:31;17.90;15.76;11.39;5.77;46.66;46.39;45.22;39.63;25.49;0.94
77661;SPS30;69666;52.136;5.424;2023-11-19T03:09:01;16.80;14.79;10.68;5.41;43.77;43.52;42.42;37.17;23.91;0.94
77661;SPS30;69666;52.136;5.424;2023-11-19T03:11:36;16.77;14.77;10.68;5.44;43.98;43.73;42.63;37.41;24.17;0.95
77661;SPS30;69666;52.136;5.424;2023-11-19T03:14:06;17.04;14.99;10.80;5.43;43.91;43.66;42.54;37.19;23.75;0.96
77661;SPS30;69666;52.136;5.424;2023-11-19T03:16:35;18.02;15.86;11.43;5.75;46.51;46.24;45.05;39.40;25.19;0.95
77661;SPS30;69666;52.136;5.424;2023-11-19T03:19:05;16.60;14.63;10.61;5.44;43.98;43.73;42.66;37.51;24.38;0.94
77661;SPS30;69666;52.136;5.424;2023-11-19T03:21:34;17.28;15.24;11.08;5.72;46.26;46.00;44.89;39.56;25.88;0.93
77661;SPS30;69666;52.136;5.424;2023-11-19T03:24:04;16.86;14.89;10.86;5.66;45.75;45.50;44.42;39.26;25.88;0.93
77661;SPS30;69666;52.136;5.424;2023-11-19T03:26:35;16.51;14.54;10.53;5.37;43.46;43.21;42.14;37.01;23.96;0.93
77661;SPS30;69666;52.136;5.424;2023-11-19T03:29:05;18.23;16.05;11.59;5.87;47.45;47.18;45.99;40.29;25.90;0.94
77661;SPS30;69666;52.136;5.424;2023-11-19T03:31:35;17.16;15.06;10.78;5.31;42.96;42.70;41.55;36.09;22.61;0.99
77661;SPS30;69666;52.136;5.424;2023-11-19T03:34:05;18.73;16.44;11.75;5.77;46.69;46.40;45.15;39.18;24.47;0.98
77661;SPS30;69666;52.136;5.424;2023-11-19T03:36:36;19.29;16.88;11.95;5.66;45.90;45.60;44.28;38.00;22.93;1.03
77661;SPS30;69666;52.136;5.424;2023-11-19T03:39:05;17.08;15.01;10.78;5.36;43.41;43.15;42.02;36.62;23.17;0.99
77661;SPS30;69666;52.136;5.424;2023-11-19T03:41:34;17.75;15.63;11.30;5.74;46.44;46.17;45.01;39.48;25.46;0.95
77661;SPS30;69666;52.136;5.424;2023-11-19T03:44:07;16.79;14.82;10.82;5.65;45.67;45.43;44.35;39.22;25.90;0.92
77661;SPS30;69666;52.136;5.424;2023-11-19T03:46:36;17.64;15.59;11.38;5.96;48.16;47.90;46.78;41.39;27.39;0.91
77661;SPS30;69666;52.136;5.424;2023-11-19T03:49:06;18.27;16.10;11.66;5.96;48.17;47.90;46.71;41.04;26.60;0.94
77661;SPS30;69666;52.136;5.424;2023-11-19T03:51:36;17.30;15.27;11.12;5.77;46.65;46.40;45.28;39.97;26.26;0.93
77661;SPS30;69666;52.136;5.424;2023-11-19T03:54:05;17.28;15.22;11.03;5.64;45.62;45.37;44.24;38.88;25.22;0.96
77661;SPS30;69666;52.136;5.424;2023-11-19T03:56:35;16.90;14.88;10.75;5.45;44.08;43.83;42.72;37.45;24.10;0.95
77661;SPS30;69666;52.136;5.424;2023-11-19T03:59:05;17.52;15.42;11.12;5.60;45.30;45.03;43.88;38.39;24.57;0.97
77661;SPS30;69666;52.136;5.424;2023-11-19T04:01:35;17.90;15.74;11.34;5.70;46.10;45.83;44.65;39.03;24.92;0.96
77661;SPS30;69666;52.136;5.424;2023-11-19T04:04:05;19.80;17.40;12.51;6.24;50.50;50.20;48.89;42.64;27.05;0.98
77661;SPS30;69666;52.136;5.424;2023-11-19T04:06:35;20.31;17.80;12.65;6.09;49.33;49.02;47.64;41.09;25.19;1.01
77661;SPS30;69666;52.136;5.424;2023-11-19T04:09:05;18.74;16.42;11.68;5.63;45.61;45.32;44.05;38.01;23.33;1.00
77661;SPS30;69666;52.136;5.424;2023-11-19T04:11:35;19.67;17.24;12.27;5.92;47.99;47.69;46.36;40.03;24.62;0.99
77661;SPS30;69666;52.136;5.424;2023-11-19T04:14:05;19.35;16.95;12.04;5.78;46.85;46.55;45.24;38.99;23.85;0.99
77661;SPS30;69666;52.136;5.424;2023-11-19T04:16:34;18.55;16.26;11.57;5.58;45.22;44.94;43.68;37.71;23.18;1.00
77661;SPS30;69666;52.136;5.424;2023-11-19T04:19:03;20.74;18.12;12.77;5.97;48.39;48.07;46.63;39.83;23.66;1.03
77661;SPS30;69666;52.136;5.424;2023-11-19T04:21:34;19.39;16.99;12.09;5.84;47.27;46.98;45.66;39.42;24.24;1.00
77661;SPS30;69666;52.136;5.424;2023-11-19T04:24:03;19.96;17.47;12.39;5.91;47.90;47.60;46.24;39.77;24.16;1.00
77661;SPS30;69666;52.136;5.424;2023-11-19T04:26:34;18.73;16.46;11.80;5.85;47.35;47.07;45.83;39.89;25.16;0.96
77661;SPS30;69666;52.136;5.424;2023-11-19T04:29:04;17.69;15.58;11.26;5.72;46.26;46.00;44.84;39.33;25.36;0.95
77661;SPS30;69666;52.136;5.424;2023-11-19T04:31:33;19.73;17.32;12.39;6.09;49.30;49.00;47.68;41.40;25.90;0.98
77661;SPS30;69666;52.136;5.424;2023-11-19T04:34:03;18.92;16.58;11.81;5.72;46.30;46.01;44.73;38.65;23.83;0.99
77661;SPS30;69666;52.136;5.424;2023-11-19T04:36:33;18.31;16.09;11.54;5.73;46.35;46.08;44.86;39.06;24.65;0.97
77661;SPS30;69666;52.136;5.424;2023-11-19T04:39:05;18.22;16.00;11.46;5.65;45.77;45.50;44.28;38.49;24.17;0.99
77661;SPS30;69666;52.136;5.424;2023-11-19T04:41:46;20.37;17.86;12.73;6.18;50.08;49.77;48.40;41.87;25.89;0.99
77661;SPS30;69666;52.136;5.424;2023-11-19T04:44:21;19.89;17.42;12.37;5.92;48.01;47.70;46.35;39.91;24.35;1.00
77661;SPS30;69666;52.136;5.424;2023-11-19T04:46:51;20.04;17.51;12.35;5.78;46.86;46.55;45.17;38.60;22.97;1.03
77661;SPS30;69666;52.136;5.424;2023-11-19T04:49:20;21.93;19.18;13.56;6.40;51.91;51.57;50.06;42.91;25.79;1.01
77661;SPS30;69666;52.136;5.424;2023-11-19T04:51:50;19.09;16.66;11.70;5.40;43.77;43.47;42.15;35.84;20.99;1.02
77661;SPS30;69666;52.136;5.424;2023-11-19T04:54:20;20.31;17.76;12.53;5.88;47.70;47.38;45.98;39.34;23.49;1.00
77661;SPS30;69666;52.136;5.424;2023-11-19T04:56:49;20.60;18.03;12.77;6.07;49.19;48.87;47.46;40.76;24.66;1.01
77661;SPS30;69666;52.136;5.424;2023-11-19T04:59:18;19.91;17.41;12.31;5.82;47.19;46.88;45.51;39.02;23.47;1.02
77661;SPS30;69666;52.136;5.424;2023-11-19T05:01:48;19.28;16.93;12.12;5.97;48.31;48.02;46.73;40.60;25.45;0.98
77661;SPS30;69666;52.136;5.424;2023-11-19T05:04:18;18.36;16.10;11.48;5.58;45.22;44.94;43.70;37.82;23.42;0.98
77661;SPS30;69666;52.136;5.424;2023-11-19T05:06:47;19.40;17.04;12.23;6.07;49.14;48.84;47.56;41.42;26.16;0.97
77661;SPS30;69666;52.136;5.424;2023-11-19T05:09:17;20.60;18.08;12.92;6.32;51.16;50.85;49.47;42.89;26.71;1.00
77661;SPS30;69666;52.136;5.424;2023-11-19T05:11:46;19.44;17.02;12.05;5.73;46.41;46.11;44.78;38.46;23.27;1.00
77661;SPS30;69666;52.136;5.424;2023-11-19T05:14:18;19.59;17.17;12.23;5.91;47.90;47.60;46.28;39.98;24.62;0.99
77661;SPS30;69666;52.136;5.424;2023-11-19T05:16:49;18.95;16.64;11.92;5.88;47.59;47.31;46.04;40.02;25.13;0.98
77661;SPS30;69666;52.136;5.424;2023-11-19T05:19:18;18.10;15.90;11.42;5.68;45.97;45.69;44.49;38.77;24.53;0.97
77661;SPS30;69666;52.136;5.424;2023-11-19T05:21:48;17.48;15.38;11.09;5.59;45.22;44.96;43.81;38.33;24.54;0.98
77661;SPS30;69666;52.136;5.424;2023-11-19T05:24:20;18.38;16.12;11.51;5.62;45.54;45.26;44.03;38.16;23.73;1.01
77661;SPS30;69666;52.136;5.424;2023-11-19T05:26:49;21.22;18.54;13.06;6.08;49.33;49.00;47.53;40.56;24.02;1.03
77661;SPS30;69666;52.136;5.424;2023-11-19T05:29:20;20.51;17.93;12.67;5.97;48.40;48.09;46.68;39.98;23.97;1.02
77661;SPS30;69666;52.136;5.424;2023-11-19T05:31:49;21.54;18.79;13.19;6.07;49.22;48.88;47.38;40.25;23.50;1.03
77661;SPS30;69666;52.136;5.424;2023-11-19T05:34:19;18.81;16.43;11.57;5.38;43.66;43.36;42.06;35.87;21.21;1.02
77661;SPS30;69666;52.136;5.424;2023-11-19T05:36:48;18.77;16.41;11.59;5.46;44.23;43.93;42.64;36.51;21.86;1.03
77661;SPS30;69666;52.136;5.424;2023-11-19T05:39:18;20.52;17.91;12.56;5.77;46.82;46.50;45.07;38.27;22.31;1.03
77661;SPS30;69666;52.136;5.424;2023-11-19T05:41:47;19.89;17.42;12.37;5.93;48.05;47.75;46.40;39.97;24.40;1.00
77661;SPS30;69666;52.136;5.424;2023-11-19T05:44:17;21.81;18.99;13.22;5.92;48.07;47.72;46.18;38.86;21.96;1.06
77661;SPS30;69666;52.136;5.424;2023-11-19T05:46:46;19.66;17.15;12.04;5.55;45.01;44.70;43.34;36.84;21.54;1.02
77661;SPS30;69666;52.136;5.424;2023-11-19T05:49:16;18.95;16.60;11.78;5.64;45.73;45.44;44.15;38.02;23.19;0.98
77661;SPS30;69666;52.136;5.424;2023-11-19T05:51:46;18.50;16.24;11.61;5.69;46.11;45.83;44.59;38.69;24.16;0.98
77661;SPS30;69666;52.136;5.424;2023-11-19T05:54:15;21.18;18.53;13.12;6.23;50.50;50.17;48.73;41.84;25.29;1.01
77661;SPS30;69666;52.136;5.424;2023-11-19T05:56:49;19.11;16.70;11.78;5.51;44.71;44.41;43.09;36.83;21.93;1.03
77661;SPS30;69666;52.136;5.424;2023-11-19T05:59:21;20.31;17.77;12.57;5.95;48.24;47.92;46.53;39.92;24.05;1.03
77661;SPS30;69666;52.136;5.424;2023-11-19T06:01:51;18.42;16.15;11.50;5.57;45.15;44.86;43.62;37.70;23.26;0.99
77661;SPS30;69666;52.136;5.424;2023-11-19T06:04:21;18.63;16.39;11.81;5.95;48.11;47.83;46.60;40.76;26.07;0.96
77661;SPS30;69666;52.136;5.424;2023-11-19T06:06:50;19.77;17.31;12.28;5.87;47.55;47.24;45.90;39.49;24.03;1.02
77661;SPS30;69666;52.136;5.424;2023-11-19T06:09:22;20.04;17.53;12.39;5.84;47.37;47.06;45.69;39.15;23.50;1.03
77661;SPS30;69666;52.136;5.424;2023-11-19T06:11:51;18.95;16.60;11.80;5.68;45.98;45.69;44.40;38.29;23.45;0.99
77661;SPS30;69666;52.136;5.424;2023-11-19T06:14:22;21.72;18.95;13.27;6.07;49.24;48.89;47.38;40.17;23.28;1.03
77661;SPS30;69666;52.136;5.424;2023-11-19T06:16:52;20.73;18.10;12.72;5.89;47.75;47.42;45.99;39.15;23.01;1.04
77661;SPS30;69666;52.136;5.424;2023-11-19T06:19:22;21.00;18.36;12.97;6.11;49.55;49.22;47.78;40.92;24.53;1.02
77661;SPS30;69666;52.136;5.424;2023-11-19T06:21:56;21.83;19.05;13.37;6.16;49.97;49.62;48.10;40.89;23.91;1.04
77661;SPS30;69666;52.136;5.424;2023-11-19T06:24:25;20.08;17.57;12.46;5.94;48.16;47.85;46.48;39.97;24.27;1.01
77661;SPS30;69666;52.136;5.424;2023-11-19T06:26:55;17.89;15.72;11.28;5.59;45.27;45.00;43.81;38.15;24.07;0.97
77661;SPS30;69666;52.136;5.424;2023-11-19T06:29:24;18.33;16.09;11.50;5.64;45.70;45.42;44.19;38.35;23.96;0.98
77661;SPS30;69666;52.136;5.424;2023-11-19T06:31:54;19.80;17.36;12.38;6.02;48.75;48.44;47.11;40.76;25.24;0.99
77661;SPS30;69666;52.136;5.424;2023-11-19T06:34:23;21.73;18.98;13.36;6.23;50.50;50.16;48.66;41.52;24.59;1.04
77661;SPS30;69666;52.136;5.424;2023-11-19T06:36:53;20.65;18.06;12.76;6.02;48.82;48.49;47.08;40.34;24.22;1.01
77661;SPS30;69666;52.136;5.424;2023-11-19T06:39:22;20.75;18.12;12.73;5.89;47.74;47.41;45.97;39.13;22.97;1.02
77661;SPS30;69666;52.136;5.424;2023-11-19T06:41:52;19.66;17.20;12.16;5.75;46.64;46.33;44.98;38.58;23.22;1.01
77661;SPS30;69666;52.136;5.424;2023-11-19T06:44:21;20.32;17.76;12.52;5.87;47.57;47.25;45.85;39.20;23.36;1.03
77661;SPS30;69666;52.136;5.424;2023-11-19T06:46:52;23.41;20.33;14.04;6.09;49.53;49.15;47.47;39.50;21.43;1.09
77661;SPS30;69666;52.136;5.424;2023-11-19T06:49:21;21.87;19.07;13.34;6.07;49.29;48.94;47.41;40.14;23.15;1.04
77661;SPS30;69666;52.136;5.424;2023-11-19T06:51:52;19.42;16.96;11.93;5.54;44.94;44.63;43.29;36.89;21.77;1.02
77661;SPS30;69666;52.136;5.424;2023-11-19T06:54:21;20.93;18.24;12.75;5.79;47.00;46.67;45.20;38.23;21.98;1.05
77661;SPS30;69666;52.136;5.424;2023-11-19T06:56:51;21.89;19.06;13.27;5.94;48.24;47.89;46.34;39.00;22.03;1.07
77661;SPS30;69666;52.136;5.424;2023-11-19T06:59:20;22.60;19.70;13.77;6.25;50.73;50.37;48.78;41.25;23.71;1.05
77661;SPS30;69666;52.136;5.424;2023-11-19T07:01:49;23.22;20.23;14.13;6.39;51.86;51.49;49.86;42.11;24.09;1.06
77661;SPS30;69666;52.136;5.424;2023-11-19T07:04:19;20.57;17.92;12.52;5.67;46.03;45.71;44.26;37.40;21.44;1.06
77661;SPS30;69666;52.136;5.424;2023-11-19T07:06:50;22.53;19.61;13.64;6.09;49.46;49.10;47.50;39.93;22.48;1.07
77661;SPS30;69666;52.136;5.424;2023-11-19T07:09:20;21.72;18.94;13.26;6.05;49.09;48.74;47.22;40.01;23.13;1.03
77661;SPS30;69666;52.136;5.424;2023-11-19T07:11:50;19.96;17.44;12.29;5.74;46.54;46.22;44.85;38.30;22.73;1.03
77661;SPS30;69666;52.136;5.424;2023-11-19T07:14:20;21.49;18.77;13.19;6.11;49.58;49.24;47.75;40.67;23.93;1.05
77661;SPS30;69666;52.136;5.424;2023-11-19T07:16:51;21.34;18.61;13.04;5.97;48.44;48.10;46.61;39.54;22.95;1.04
77661;SPS30;69666;52.136;5.424;2023-11-19T07:19:21;20.46;17.84;12.48;5.67;46.05;45.73;44.29;37.48;21.59;1.04
77661;SPS30;69666;52.136;5.424;2023-11-19T07:21:51;20.71;18.11;12.81;6.06;49.16;48.84;47.42;40.68;24.50;1.01
77661;SPS30;69666;52.136;5.424;2023-11-19T07:24:21;18.30;16.01;11.34;5.39;43.72;43.43;42.18;36.24;21.94;1.01
77661;SPS30;69666;52.136;5.424;2023-11-19T07:26:52;21.22;18.49;12.91;5.83;47.33;46.99;45.50;38.41;21.95;1.05
77661;SPS30;69666;52.136;5.424;2023-11-19T07:29:21;20.59;17.94;12.52;5.66;45.93;45.60;44.16;37.28;21.31;1.05
77661;SPS30;69666;52.136;5.424;2023-11-19T07:31:54;20.30;17.76;12.56;5.94;48.18;47.87;46.48;39.87;24.01;1.01
77661;SPS30;69666;52.136;5.424;2023-11-19T07:34:24;21.08;18.36;12.81;5.77;46.87;46.53;45.05;38.00;21.65;1.06
77661;SPS30;69666;52.136;5.424;2023-11-19T07:36:54;19.96;17.41;12.18;5.55;45.07;44.75;43.36;36.72;21.21;1.04
77661;SPS30;69666;52.136;5.424;2023-11-19T07:39:30;20.34;17.78;12.53;5.87;47.57;47.25;45.85;39.19;23.33;1.03
77661;SPS30;69666;52.136;5.424;2023-11-19T07:42:00;20.55;17.93;12.58;5.78;46.86;46.53;45.10;38.30;22.31;1.04
77661;SPS30;69666;52.136;5.424;2023-11-19T07:44:29;20.63;18.01;12.66;5.86;47.51;47.19;45.76;38.95;22.89;1.02
77661;SPS30;69666;52.136;5.424;2023-11-19T07:46:59;19.74;17.23;12.12;5.61;45.53;45.22;43.85;37.35;21.98;1.02
77661;SPS30;69666;52.136;5.424;2023-11-19T07:49:29;19.93;17.37;12.13;5.50;44.64;44.33;42.93;36.29;20.82;1.04
77661;SPS30;69666;52.136;5.424;2023-11-19T07:51:58;21.93;19.08;13.26;5.89;47.85;47.49;45.94;38.55;21.57;1.06
77661;SPS30;69666;52.136;5.424;2023-11-19T07:54:28;21.22;18.46;12.82;5.68;46.13;45.79;44.28;37.13;20.71;1.07
77661;SPS30;69666;52.136;5.424;2023-11-19T07:56:58;21.93;19.08;13.26;5.89;47.81;47.45;45.90;38.51;21.53;1.06
77661;SPS30;69666;52.136;5.424;2023-11-19T07:59:28;20.99;18.28;12.73;5.70;46.29;45.95;44.47;37.43;21.16;1.06
77661;SPS30;69666;52.136;5.424;2023-11-19T08:01:58;21.05;18.36;12.84;5.85;47.48;47.15;45.67;38.67;22.32;1.04
77661;SPS30;69666;52.136;5.424;2023-11-19T08:04:28;22.60;19.64;13.61;5.98;48.57;48.21;46.59;38.94;21.48;1.08
77661;SPS30;69666;52.136;5.424;2023-11-19T08:06:57;23.47;20.38;14.06;6.07;49.36;48.98;47.29;39.28;21.17;1.10
77661;SPS30;69666;52.136;5.424;2023-11-19T08:09:26;20.32;17.68;12.30;5.48;44.49;44.16;42.72;35.89;20.15;1.06
77661;SPS30;69666;52.136;5.424;2023-11-19T08:11:55;20.34;17.71;12.33;5.51;44.77;44.45;43.01;36.18;20.42;1.05
77661;SPS30;69666;52.136;5.424;2023-11-19T08:14:25;21.25;18.49;12.86;5.74;46.60;46.26;44.75;37.61;21.15;1.06
77661;SPS30;69666;52.136;5.424;2023-11-19T08:16:54;21.12;18.42;12.91;5.91;47.99;47.65;46.18;39.18;22.76;1.05
77661;SPS30;69666;52.136;5.424;2023-11-19T08:19:24;21.27;18.49;12.83;5.66;46.00;45.65;44.14;36.95;20.50;1.09
77661;SPS30;69666;52.136;5.424;2023-11-19T08:21:56;21.40;18.61;12.90;5.69;46.24;45.89;44.37;37.14;20.59;1.08
77661;SPS30;69666;52.136;5.424;2023-11-19T08:24:26;22.78;19.84;13.83;6.21;50.44;50.07;48.46;40.84;23.18;1.06
77661;SPS30;69666;52.136;5.424;2023-11-19T08:26:55;21.41;18.67;13.06;5.94;48.21;47.87;46.37;39.25;22.62;1.05
77661;SPS30;69666;52.136;5.424;2023-11-19T08:29:28;23.89;20.74;14.32;6.21;50.49;50.10;48.38;40.25;21.81;1.10
77661;SPS30;69666;52.136;5.424;2023-11-19T08:31:57;22.23;19.34;13.44;5.97;48.46;48.10;46.52;39.03;21.83;1.08
77661;SPS30;69666;52.136;5.424;2023-11-19T08:34:29;20.70;18.01;12.50;5.54;45.00;44.66;43.19;36.21;20.19;1.06
77661;SPS30;69666;52.136;5.424;2023-11-19T08:36:59;21.67;18.91;13.28;6.12;49.65;49.31;47.80;40.65;23.79;1.03
77661;SPS30;69666;52.136;5.424;2023-11-19T08:39:28;20.08;17.52;12.28;5.64;45.77;45.45;44.05;37.41;21.79;1.04
77661;SPS30;69666;52.136;5.424;2023-11-19T08:41:58;19.73;17.27;12.23;5.82;47.18;46.87;45.53;39.12;23.69;1.01
77661;SPS30;69666;52.136;5.424;2023-11-19T08:44:27;20.75;18.10;12.68;5.80;47.09;46.76;45.31;38.43;22.30;1.02
77661;SPS30;69666;52.136;5.424;2023-11-19T08:46:57;19.61;17.19;12.25;5.93;48.04;47.73;46.41;40.11;24.73;0.99
77661;SPS30;69666;52.136;5.424;2023-11-19T08:49:26;20.07;17.59;12.53;6.07;49.14;48.83;47.47;41.02;25.29;0.99
77661;SPS30;69666;52.136;5.424;2023-11-19T08:51:56;20.61;18.00;12.67;5.90;47.81;47.48;46.06;39.28;23.22;1.02
77661;SPS30;69666;52.136;5.424;2023-11-19T08:54:25;18.52;16.21;11.48;5.45;44.17;43.88;42.61;36.59;22.12;1.00
77661;SPS30;69666;52.136;5.424;2023-11-19T08:56:54;19.44;17.01;12.05;5.73;46.44;46.13;44.81;38.49;23.29;1.01
77661;SPS30;69666;52.136;5.424;2023-11-19T08:59:23;19.87;17.41;12.37;5.95;48.17;47.87;46.52;40.11;24.55;0.99
77661;SPS30;69666;52.136;5.424;2023-11-19T09:01:53;20.38;17.79;12.49;5.76;46.76;46.44;45.02;38.29;22.43;1.04
77661;SPS30;69666;52.136;5.424;2023-11-19T09:04:22;19.05;16.65;11.74;5.50;44.63;44.33;43.02;36.78;21.92;1.03
77661;SPS30;69666;52.136;5.424;2023-11-19T09:06:52;18.34;16.04;11.34;5.36;43.48;43.19;41.93;35.96;21.64;1.01
77661;SPS30;69666;52.136;5.424;2023-11-19T09:09:22;19.75;17.31;12.30;5.91;47.91;47.60;46.26;39.89;24.42;0.98
77661;SPS30;69666;52.136;5.424;2023-11-19T09:11:51;19.27;16.86;11.92;5.64;45.73;45.43;44.11;37.84;22.79;1.00